sensor_id;sensor_type;location;lat;lon;timestamp;pressure;altitude;pressure_sealevel;temperature;humidity
69982;BME280;57319;56.274;43.980;2024-01-07T00:01:24;99565.78;;;-22.99;74.92
69982;BME280;57319;56.274;43.980;2024-01-07T00:03:52;99565.75;;;-22.34;77.05
69982;BME280;57319;56.274;43.980;2024-01-07T00:06:18;99571.00;;;-23.03;75.59
69982;BME280;57319;56.274;43.980;2024-01-07T00:08:44;99574.63;;;-22.64;76.14
69982;BME280;57319;56.274;43.980;2024-01-07T00:11:09;99571.84;;;-22.88;75.07
69982;BME280;57319;56.274;43.980;2024-01-07T00:13:36;99577.78;;;-22.79;75.45
69982;BME280;57319;56.274;43.980;2024-01-07T00:16:01;99574.47;;;-22.94;75.42
69982;BME280;57319;56.274;43.980;2024-01-07T00:18:27;99575.34;;;-22.50;76.94
69982;BME280;57319;56.274;43.980;2024-01-07T00:20:53;99591.00;;;-23.20;75.73
69982;BME280;57319;56.274;43.980;2024-01-07T00:23:19;99591.50;;;-23.30;76.36
69982;BME280;57319;56.274;43.980;2024-01-07T00:25:46;99584.00;;;-23.95;78.07
69982;BME280;57319;56.274;43.980;2024-01-07T00:28:12;99597.47;;;-23.70;78.37
69982;BME280;57319;56.274;43.980;2024-01-07T00:30:38;99593.69;;;-23.61;77.73
69982;BME280;57319;56.274;43.980;2024-01-07T00:33:03;99596.38;;;-23.30;78.41
69982;BME280;57319;56.274;43.980;2024-01-07T00:35:29;99598.97;;;-23.43;77.31
69982;BME280;57319;56.274;43.980;2024-01-07T00:37:55;99594.50;;;-22.90;77.85
69982;BME280;57319;56.274;43.980;2024-01-07T00:40:23;99593.47;;;-22.48;78.20
69982;BME280;57319;56.274;43.980;2024-01-07T00:42:48;99598.16;;;-22.57;77.01
69982;BME280;57319;56.274;43.980;2024-01-07T00:45:14;99603.19;;;-22.19;77.46
69982;BME280;57319;56.274;43.980;2024-01-07T00:47:40;99607.53;;;-23.11;75.26
69982;BME280;57319;56.274;43.980;2024-01-07T00:50:06;99603.91;;;-22.42;76.86
69982;BME280;57319;56.274;43.980;2024-01-07T00:52:33;99599.53;;;-23.10;76.19
69982;BME280;57319;56.274;43.980;2024-01-07T00:54:58;99600.09;;;-22.91;76.04
69982;BME280;57319;56.274;43.980;2024-01-07T00:57:24;99595.72;;;-22.86;76.62
69982;BME280;57319;56.274;43.980;2024-01-07T00:59:49;99604.44;;;-22.95;75.94
69982;BME280;57319;56.274;43.980;2024-01-07T01:02:15;99611.75;;;-22.95;76.24
69982;BME280;57319;56.274;43.980;2024-01-07T01:04:41;99605.84;;;-22.61;76.67
69982;BME280;57319;56.274;43.980;2024-01-07T01:07:07;99609.66;;;-22.49;76.48
69982;BME280;57319;56.274;43.980;2024-01-07T01:09:35;99613.00;;;-22.41;76.30
69982;BME280;57319;56.274;43.980;2024-01-07T01:12:01;99612.13;;;-22.56;76.24
69982;BME280;57319;56.274;43.980;2024-01-07T01:14:27;99619.25;;;-22.50;76.11
69982;BME280;57319;56.274;43.980;2024-01-07T01:16:52;99620.31;;;-22.77;76.12
69982;BME280;57319;56.274;43.980;2024-01-07T01:19:18;99618.03;;;-22.61;76.76
69982;BME280;57319;56.274;43.980;2024-01-07T01:21:44;99622.00;;;-23.27;75.42
69982;BME280;57319;56.274;43.980;2024-01-07T01:24:10;99629.63;;;-23.31;76.50
69982;BME280;57319;56.274;43.980;2024-01-07T01:26:35;99624.25;;;-23.28;76.13
69982;BME280;57319;56.274;43.980;2024-01-07T01:29:01;99623.78;;;-22.75;77.13
69982;BME280;57319;56.274;43.980;2024-01-07T01:31:27;99635.78;;;-23.54;76.30
69982;BME280;57319;56.274;43.980;2024-01-07T01:33:52;99634.28;;;-23.39;76.99
69982;BME280;57319;56.274;43.980;2024-01-07T01:36:18;99639.59;;;-22.93;77.92
69982;BME280;57319;56.274;43.980;2024-01-07T01:38:43;99642.44;;;-22.76;77.73
69982;BME280;57319;56.274;43.980;2024-01-07T01:41:09;99638.91;;;-23.14;77.01
69982;BME280;57319;56.274;43.980;2024-01-07T01:43:35;99640.34;;;-22.87;77.03
69982;BME280;57319;56.274;43.980;2024-01-07T01:46:01;99640.66;;;-23.13;76.89
69982;BME280;57319;56.274;43.980;2024-01-07T01:48:27;99648.13;;;-22.97;76.41
69982;BME280;57319;56.274;43.980;2024-01-07T01:50:54;99651.06;;;-23.21;76.60
69982;BME280;57319;56.274;43.980;2024-01-07T01:53:24;99656.13;;;-23.19;75.87
69982;BME280;57319;56.274;43.980;2024-01-07T01:55:50;99647.22;;;-23.33;75.25
69982;BME280;57319;56.274;43.980;2024-01-07T01:58:17;99649.75;;;-23.88;74.86
69982;BME280;57319;56.274;43.980;2024-01-07T02:00:44;99661.03;;;-23.54;75.98
69982;BME280;57319;56.274;43.980;2024-01-07T02:03:10;99655.78;;;-23.15;75.18
69982;BME280;57319;56.274;43.980;2024-01-07T02:05:35;99664.78;;;-23.29;75.48
69982;BME280;57319;56.274;43.980;2024-01-07T02:08:01;99667.13;;;-22.94;75.56
69982;BME280;57319;56.274;43.980;2024-01-07T02:10:27;99664.00;;;-22.86;75.76
69982;BME280;57319;56.274;43.980;2024-01-07T02:12:54;99665.47;;;-23.37;74.73
69982;BME280;57319;56.274;43.980;2024-01-07T02:15:20;99676.53;;;-23.12;75.96
69982;BME280;57319;56.274;43.980;2024-01-07T02:17:45;99683.44;;;-23.98;73.62
69982;BME280;57319;56.274;43.980;2024-01-07T02:20:11;99681.31;;;-23.33;75.88
69982;BME280;57319;56.274;43.980;2024-01-07T02:22:37;99686.28;;;-23.12;75.28
69982;BME280;57319;56.274;43.980;2024-01-07T02:25:03;99687.47;;;-23.15;75.13
69982;BME280;57319;56.274;43.980;2024-01-07T02:27:29;99690.44;;;-23.18;75.31
69982;BME280;57319;56.274;43.980;2024-01-07T02:29:55;99689.84;;;-23.30;75.59
69982;BME280;57319;56.274;43.980;2024-01-07T02:32:21;99685.28;;;-23.76;73.86
69982;BME280;57319;56.274;43.980;2024-01-07T02:34:47;99697.66;;;-24.01;74.22
69982;BME280;57319;56.274;43.980;2024-01-07T02:37:13;99692.72;;;-23.81;75.21
69982;BME280;57319;56.274;43.980;2024-01-07T02:39:39;99691.28;;;-23.59;74.98
69982;BME280;57319;56.274;43.980;2024-01-07T02:42:05;99689.81;;;-24.06;73.64
69982;BME280;57319;56.274;43.980;2024-01-07T02:44:30;99692.13;;;-23.66;74.98
69982;BME280;57319;56.274;43.980;2024-01-07T02:46:56;99703.63;;;-24.19;73.37
69982;BME280;57319;56.274;43.980;2024-01-07T02:49:21;99704.31;;;-24.40;73.46
69982;BME280;57319;56.274;43.980;2024-01-07T02:51:47;99703.91;;;-24.03;74.79
69982;BME280;57319;56.274;43.980;2024-01-07T02:54:15;99713.75;;;-24.36;73.79
69982;BME280;57319;56.274;43.980;2024-01-07T02:56:40;99716.81;;;-24.85;74.12
69982;BME280;57319;56.274;43.980;2024-01-07T02:59:06;99725.38;;;-24.14;75.06
69982;BME280;57319;56.274;43.980;2024-01-07T03:01:32;99726.09;;;-23.87;75.38
69982;BME280;57319;56.274;43.980;2024-01-07T03:03:57;99728.28;;;-23.42;75.74
69982;BME280;57319;56.274;43.980;2024-01-07T03:06:26;99730.38;;;-23.37;76.08
69982;BME280;57319;56.274;43.980;2024-01-07T03:08:53;99732.66;;;-23.66;74.87
69982;BME280;57319;56.274;43.980;2024-01-07T03:11:20;99744.47;;;-23.69;75.36
69982;BME280;57319;56.274;43.980;2024-01-07T03:13:45;99740.06;;;-24.06;75.08
69982;BME280;57319;56.274;43.980;2024-01-07T03:16:19;99742.25;;;-23.61;76.39
69982;BME280;57319;56.274;43.980;2024-01-07T03:18:45;99749.53;;;-23.40;75.81
69982;BME280;57319;56.274;43.980;2024-01-07T03:21:21;99751.50;;;-23.58;75.37
69982;BME280;57319;56.274;43.980;2024-01-07T03:23:48;99748.41;;;-23.50;75.75
69982;BME280;57319;56.274;43.980;2024-01-07T03:26:16;99747.59;;;-23.43;75.54
69982;BME280;57319;56.274;43.980;2024-01-07T03:28:42;99747.31;;;-23.59;75.51
69982;BME280;57319;56.274;43.980;2024-01-07T03:31:18;99755.28;;;-23.60;75.32
69982;BME280;57319;56.274;43.980;2024-01-07T03:33:44;99761.63;;;-23.75;74.86
69982;BME280;57319;56.274;43.980;2024-01-07T03:36:12;99756.56;;;-23.56;75.13
69982;BME280;57319;56.274;43.980;2024-01-07T03:38:38;99749.06;;;-23.58;75.66
69982;BME280;57319;56.274;43.980;2024-01-07T03:41:04;99750.31;;;-23.82;74.85
69982;BME280;57319;56.274;43.980;2024-01-07T03:43:30;99748.91;;;-23.52;75.41
69982;BME280;57319;56.274;43.980;2024-01-07T03:45:56;99756.63;;;-23.42;75.08
69982;BME280;57319;56.274;43.980;2024-01-07T03:48:21;99758.66;;;-23.52;75.08
69982;BME280;57319;56.274;43.980;2024-01-07T03:50:47;99764.72;;;-24.11;74.23
69982;BME280;57319;56.274;43.980;2024-01-07T03:53:14;99762.75;;;-23.66;76.02
69982;BME280;57319;56.274;43.980;2024-01-07T03:55:39;99763.34;;;-23.54;76.24
69982;BME280;57319;56.274;43.980;2024-01-07T03:58:05;99764.91;;;-23.54;74.90
69982;BME280;57319;56.274;43.980;2024-01-07T04:00:32;99768.75;;;-24.44;73.74
69982;BME280;57319;56.274;43.980;2024-01-07T04:02:58;99763.28;;;-24.16;75.84
69982;BME280;57319;56.274;43.980;2024-01-07T04:05:23;99771.13;;;-24.11;75.16
69982;BME280;57319;56.274;43.980;2024-01-07T04:07:49;99781.13;;;-24.22;74.58
69982;BME280;57319;56.274;43.980;2024-01-07T04:10:16;99778.13;;;-23.80;75.78
69982;BME280;57319;56.274;43.980;2024-01-07T04:12:42;99785.66;;;-23.71;75.40
69982;BME280;57319;56.274;43.980;2024-01-07T04:15:08;99778.34;;;-24.38;74.19
69982;BME280;57319;56.274;43.980;2024-01-07T04:17:34;99769.19;;;-24.14;74.79
69982;BME280;57319;56.274;43.980;2024-01-07T04:20:00;99776.94;;;-25.09;75.11
69982;BME280;57319;56.274;43.980;2024-01-07T04:22:26;99771.56;;;-24.21;76.94
69982;BME280;57319;56.274;43.980;2024-01-07T04:24:51;99790.75;;;-24.50;75.61
69982;BME280;57319;56.274;43.980;2024-01-07T04:27:17;99781.56;;;-23.92;76.46
69982;BME280;57319;56.274;43.980;2024-01-07T04:29:42;99778.31;;;-23.78;76.23
69982;BME280;57319;56.274;43.980;2024-01-07T04:32:08;99780.28;;;-23.96;75.94
69982;BME280;57319;56.274;43.980;2024-01-07T04:34:34;99778.75;;;-24.35;75.80
69982;BME280;57319;56.274;43.980;2024-01-07T04:36:59;99790.41;;;-24.13;75.92
69982;BME280;57319;56.274;43.980;2024-01-07T04:39:25;99792.91;;;-24.05;76.46
69982;BME280;57319;56.274;43.980;2024-01-07T04:41:51;99800.00;;;-23.87;75.45
69982;BME280;57319;56.274;43.980;2024-01-07T04:44:17;99801.22;;;-23.90;75.91
69982;BME280;57319;56.274;43.980;2024-01-07T04:46:42;99806.69;;;-23.99;76.09
69982;BME280;57319;56.274;43.980;2024-01-07T04:49:08;99809.25;;;-24.04;76.33
69982;BME280;57319;56.274;43.980;2024-01-07T04:51:34;99816.03;;;-24.42;75.75
69982;BME280;57319;56.274;43.980;2024-01-07T04:54:02;99813.41;;;-24.11;75.74
69982;BME280;57319;56.274;43.980;2024-01-07T04:56:28;99820.16;;;-24.08;76.38
69982;BME280;57319;56.274;43.980;2024-01-07T04:58:53;99827.16;;;-24.04;76.43
69982;BME280;57319;56.274;43.980;2024-01-07T05:01:19;99829.59;;;-24.90;74.96
69982;BME280;57319;56.274;43.980;2024-01-07T05:03:45;99828.09;;;-24.49;76.20
69982;BME280;57319;56.274;43.980;2024-01-07T05:06:11;99835.00;;;-24.39;76.53
69982;BME280;57319;56.274;43.980;2024-01-07T05:08:37;99831.66;;;-24.07;76.73
69982;BME280;57319;56.274;43.980;2024-01-07T05:11:03;99840.75;;;-24.39;75.89
69982;BME280;57319;56.274;43.980;2024-01-07T05:13:30;99840.53;;;-24.07;76.30
69982;BME280;57319;56.274;43.980;2024-01-07T05:15:56;99838.66;;;-24.23;76.16
69982;BME280;57319;56.274;43.980;2024-01-07T05:18:22;99838.41;;;-24.12;75.93
69982;BME280;57319;56.274;43.980;2024-01-07T05:20:48;99835.09;;;-24.12;76.11
69982;BME280;57319;56.274;43.980;2024-01-07T05:23:14;99837.56;;;-24.25;75.77
69982;BME280;57319;56.274;43.980;2024-01-07T05:25:41;99841.19;;;-24.29;75.92
69982;BME280;57319;56.274;43.980;2024-01-07T05:28:07;99841.19;;;-24.29;75.79
69982;BME280;57319;56.274;43.980;2024-01-07T05:30:33;99846.03;;;-24.49;75.42
69982;BME280;57319;56.274;43.980;2024-01-07T05:32:58;99838.91;;;-24.47;75.75
69982;BME280;57319;56.274;43.980;2024-01-07T05:35:24;99838.56;;;-24.30;75.54
69982;BME280;57319;56.274;43.980;2024-01-07T05:37:49;99845.84;;;-24.30;75.25
69982;BME280;57319;56.274;43.980;2024-01-07T05:40:15;99851.81;;;-24.41;75.83
69982;BME280;57319;56.274;43.980;2024-01-07T05:42:41;99846.22;;;-25.06;75.08
69982;BME280;57319;56.274;43.980;2024-01-07T05:45:07;99862.03;;;-24.89;75.87
69982;BME280;57319;56.274;43.980;2024-01-07T05:47:32;99868.47;;;-25.28;75.44
69982;BME280;57319;56.274;43.980;2024-01-07T05:49:58;99870.78;;;-24.71;77.27
69982;BME280;57319;56.274;43.980;2024-01-07T05:52:25;99869.75;;;-24.40;76.87
69982;BME280;57319;56.274;43.980;2024-01-07T05:54:51;99874.44;;;-24.22;76.33
69982;BME280;57319;56.274;43.980;2024-01-07T05:57:16;99874.50;;;-24.35;75.99
69982;BME280;57319;56.274;43.980;2024-01-07T05:59:43;99880.91;;;-24.68;76.00
69982;BME280;57319;56.274;43.980;2024-01-07T06:02:09;99881.22;;;-24.98;76.34
69982;BME280;57319;56.274;43.980;2024-01-07T06:04:37;99880.03;;;-24.82;76.66
69982;BME280;57319;56.274;43.980;2024-01-07T06:07:03;99885.72;;;-24.55;76.54
69982;BME280;57319;56.274;43.980;2024-01-07T06:09:28;99887.75;;;-24.46;76.46
69982;BME280;57319;56.274;43.980;2024-01-07T06:11:54;99888.78;;;-24.64;76.25
69982;BME280;57319;56.274;43.980;2024-01-07T06:14:22;99891.81;;;-24.72;76.19
69982;BME280;57319;56.274;43.980;2024-01-07T06:16:48;99901.28;;;-24.48;76.08
69982;BME280;57319;56.274;43.980;2024-01-07T06:19:13;99910.66;;;-24.89;75.30
69982;BME280;57319;56.274;43.980;2024-01-07T06:21:40;99903.09;;;-24.72;75.80
69982;BME280;57319;56.274;43.980;2024-01-07T06:24:07;99905.19;;;-24.55;75.48
69982;BME280;57319;56.274;43.980;2024-01-07T06:26:33;99916.19;;;-25.16;75.22
69982;BME280;57319;56.274;43.980;2024-01-07T06:28:59;99913.38;;;-25.06;75.45
69982;BME280;57319;56.274;43.980;2024-01-07T06:31:25;99919.88;;;-25.38;75.81
69982;BME280;57319;56.274;43.980;2024-01-07T06:33:51;99919.00;;;-25.13;75.92
69982;BME280;57319;56.274;43.980;2024-01-07T06:36:17;99919.88;;;-25.13;76.63
69982;BME280;57319;56.274;43.980;2024-01-07T06:38:43;99923.41;;;-24.72;76.27
69982;BME280;57319;56.274;43.980;2024-01-07T06:41:12;99920.00;;;-24.67;76.83
69982;BME280;57319;56.274;43.980;2024-01-07T06:43:38;99927.00;;;-24.63;75.90
69982;BME280;57319;56.274;43.980;2024-01-07T06:46:04;99925.16;;;-24.71;76.26
69982;BME280;57319;56.274;43.980;2024-01-07T06:48:30;99936.03;;;-25.00;75.44
69982;BME280;57319;56.274;43.980;2024-01-07T06:50:56;99936.59;;;-25.34;76.10
69982;BME280;57319;56.274;43.980;2024-01-07T06:53:22;99932.94;;;-24.73;76.40
69982;BME280;57319;56.274;43.980;2024-01-07T06:55:48;99936.75;;;-24.63;76.27
69982;BME280;57319;56.274;43.980;2024-01-07T06:58:13;99939.94;;;-24.95;75.83
69982;BME280;57319;56.274;43.980;2024-01-07T07:00:39;99952.88;;;-24.76;76.01
69982;BME280;57319;56.274;43.980;2024-01-07T07:03:05;99944.84;;;-25.39;76.47
69982;BME280;57319;56.274;43.980;2024-01-07T07:05:31;99949.97;;;-24.73;77.54
69982;BME280;57319;56.274;43.980;2024-01-07T07:07:57;99955.50;;;-24.62;77.20
69982;BME280;57319;56.274;43.980;2024-01-07T07:10:23;99953.84;;;-24.81;76.42
69982;BME280;57319;56.274;43.980;2024-01-07T07:12:49;99953.31;;;-25.04;77.01
69982;BME280;57319;56.274;43.980;2024-01-07T07:15:16;99962.38;;;-24.52;77.17
69982;BME280;57319;56.274;43.980;2024-01-07T07:17:42;99958.59;;;-24.75;76.90
69982;BME280;57319;56.274;43.980;2024-01-07T07:20:08;99968.63;;;-24.80;77.13
69982;BME280;57319;56.274;43.980;2024-01-07T07:22:34;99969.09;;;-24.82;77.12
69982;BME280;57319;56.274;43.980;2024-01-07T07:25:00;99971.44;;;-24.38;77.61
69982;BME280;57319;56.274;43.980;2024-01-07T07:27:25;99976.56;;;-24.29;76.62
69982;BME280;57319;56.274;43.980;2024-01-07T07:29:51;99993.13;;;-24.27;76.45
69982;BME280;57319;56.274;43.980;2024-01-07T07:32:17;99985.13;;;-24.25;76.79
69982;BME280;57319;56.274;43.980;2024-01-07T07:34:43;99994.38;;;-24.49;76.54
69982;BME280;57319;56.274;43.980;2024-01-07T07:37:09;99994.19;;;-24.89;76.12
69982;BME280;57319;56.274;43.980;2024-01-07T07:39:35;99997.59;;;-24.55;77.63
69982;BME280;57319;56.274;43.980;2024-01-07T07:42:01;99993.13;;;-24.39;76.90
69982;BME280;57319;56.274;43.980;2024-01-07T07:44:26;99994.41;;;-25.19;76.20
69982;BME280;57319;56.274;43.980;2024-01-07T07:46:52;100002.34;;;-24.37;77.59
69982;BME280;57319;56.274;43.980;2024-01-07T07:49:17;99997.00;;;-24.21;76.35
69982;BME280;57319;56.274;43.980;2024-01-07T07:51:43;100006.16;;;-24.13;76.05
69982;BME280;57319;56.274;43.980;2024-01-07T07:54:09;100007.22;;;-24.24;76.45
69982;BME280;57319;56.274;43.980;2024-01-07T07:56:35;100014.34;;;-24.51;76.29
69982;BME280;57319;56.274;43.980;2024-01-07T07:59:02;100007.53;;;-24.28;76.91
69982;BME280;57319;56.274;43.980;2024-01-07T08:01:28;99996.69;;;-24.04;76.96
69982;BME280;57319;56.274;43.980;2024-01-07T08:03:54;99995.72;;;-23.99;77.01
69982;BME280;57319;56.274;43.980;2024-01-07T08:06:19;99994.75;;;-24.20;77.14
69982;BME280;57319;56.274;43.980;2024-01-07T08:08:45;100010.22;;;-23.94;77.63
69982;BME280;57319;56.274;43.980;2024-01-07T08:11:11;100015.09;;;-24.06;77.65
69982;BME280;57319;56.274;43.980;2024-01-07T08:13:37;100012.81;;;-23.92;78.02
69982;BME280;57319;56.274;43.980;2024-01-07T08:16:04;100017.44;;;-23.68;77.50
69982;BME280;57319;56.274;43.980;2024-01-07T08:18:35;100017.69;;;-23.59;77.67
69982;BME280;57319;56.274;43.980;2024-01-07T08:21:01;100016.41;;;-23.50;77.08
69982;BME280;57319;56.274;43.980;2024-01-07T08:23:26;100027.66;;;-23.37;77.34
69982;BME280;57319;56.274;43.980;2024-01-07T08:25:52;100024.31;;;-23.91;76.98
69982;BME280;57319;56.274;43.980;2024-01-07T08:28:18;100033.69;;;-24.33;77.04
69982;BME280;57319;56.274;43.980;2024-01-07T08:30:44;100032.72;;;-23.69;78.54
69982;BME280;57319;56.274;43.980;2024-01-07T08:33:10;100030.53;;;-23.93;77.36
69982;BME280;57319;56.274;43.980;2024-01-07T08:35:36;100034.06;;;-23.58;78.14
69982;BME280;57319;56.274;43.980;2024-01-07T08:38:02;100031.72;;;-24.10;77.02
69982;BME280;57319;56.274;43.980;2024-01-07T08:40:28;100032.69;;;-23.56;77.34
69982;BME280;57319;56.274;43.980;2024-01-07T08:42:55;100049.59;;;-23.37;77.05
69982;BME280;57319;56.274;43.980;2024-01-07T08:45:20;100043.06;;;-23.77;77.63
69982;BME280;57319;56.274;43.980;2024-01-07T08:47:47;100040.69;;;-23.90;78.56
69982;BME280;57319;56.274;43.980;2024-01-07T08:50:12;100048.06;;;-23.17;78.72
69982;BME280;57319;56.274;43.980;2024-01-07T08:52:38;100046.34;;;-22.91;77.71
69982;BME280;57319;56.274;43.980;2024-01-07T08:55:04;100049.78;;;-23.36;76.79
69982;BME280;57319;56.274;43.980;2024-01-07T08:57:32;100050.75;;;-23.61;77.06
69982;BME280;57319;56.274;43.980;2024-01-07T08:59:57;100055.47;;;-22.82;77.33
69982;BME280;57319;56.274;43.980;2024-01-07T09:02:24;100056.84;;;-23.25;76.02
69982;BME280;57319;56.274;43.980;2024-01-07T09:04:51;100057.84;;;-24.21;77.66
69982;BME280;57319;56.274;43.980;2024-01-07T09:07:17;100050.88;;;-23.14;78.92
69982;BME280;57319;56.274;43.980;2024-01-07T09:09:44;100041.81;;;-22.87;77.80
69982;BME280;57319;56.274;43.980;2024-01-07T09:12:10;100037.41;;;-23.37;76.27
69982;BME280;57319;56.274;43.980;2024-01-07T09:14:39;100039.41;;;-23.28;77.21
69982;BME280;57319;56.274;43.980;2024-01-07T09:17:04;100032.78;;;-23.49;77.06
69982;BME280;57319;56.274;43.980;2024-01-07T09:19:30;100040.81;;;-22.62;77.37
69982;BME280;57319;56.274;43.980;2024-01-07T09:21:56;100037.63;;;-22.88;75.98
69982;BME280;57319;56.274;43.980;2024-01-07T09:24:21;100046.09;;;-22.52;76.00
69982;BME280;57319;56.274;43.980;2024-01-07T09:26:47;100050.81;;;-22.53;75.31
69982;BME280;57319;56.274;43.980;2024-01-07T09:29:12;100057.75;;;-23.24;75.72
69982;BME280;57319;56.274;43.980;2024-01-07T09:31:39;100051.94;;;-23.12;76.78
69982;BME280;57319;56.274;43.980;2024-01-07T09:34:05;100044.75;;;-22.90;76.10
69982;BME280;57319;56.274;43.980;2024-01-07T09:36:32;100039.25;;;-22.34;76.15
69982;BME280;57319;56.274;43.980;2024-01-07T09:38:58;100042.00;;;-22.66;74.48
69982;BME280;57319;56.274;43.980;2024-01-07T09:41:24;100046.97;;;-22.99;75.57
69982;BME280;57319;56.274;43.980;2024-01-07T09:43:51;100049.41;;;-22.79;75.08
69982;BME280;57319;56.274;43.980;2024-01-07T09:46:19;100057.94;;;-23.35;74.91
69982;BME280;57319;56.274;43.980;2024-01-07T09:48:44;100048.00;;;-22.77;76.13
69982;BME280;57319;56.274;43.980;2024-01-07T09:51:11;100056.59;;;-22.73;75.82
69982;BME280;57319;56.274;43.980;2024-01-07T09:53:38;100068.78;;;-23.46;75.21
69982;BME280;57319;56.274;43.980;2024-01-07T09:56:23;100053.72;;;-23.23;76.00
69982;BME280;57319;56.274;43.980;2024-01-07T09:58:50;100050.88;;;-22.39;76.38
69982;BME280;57319;56.274;43.980;2024-01-07T10:01:19;100055.31;;;-22.29;75.83
69982;BME280;57319;56.274;43.980;2024-01-07T10:03:45;100052.25;;;-22.14;75.69
69982;BME280;57319;56.274;43.980;2024-01-07T10:06:11;100054.88;;;-22.47;74.82
69982;BME280;57319;56.274;43.980;2024-01-07T10:08:38;100041.91;;;-22.18;75.64
69982;BME280;57319;56.274;43.980;2024-01-07T10:11:04;100044.25;;;-23.48;74.83
69982;BME280;57319;56.274;43.980;2024-01-07T10:13:30;100051.53;;;-23.68;77.66
69982;BME280;57319;56.274;43.980;2024-01-07T10:15:56;100063.38;;;-23.51;77.01
69982;BME280;57319;56.274;43.980;2024-01-07T10:18:22;100065.06;;;-23.70;77.74
69982;BME280;57319;56.274;43.980;2024-01-07T10:20:48;100060.63;;;-23.07;77.96
69982;BME280;57319;56.274;43.980;2024-01-07T10:23:23;100066.22;;;-23.61;77.09
69982;BME280;57319;56.274;43.980;2024-01-07T10:25:48;100072.13;;;-23.91;79.06
69982;BME280;57319;56.274;43.980;2024-01-07T10:28:14;100084.44;;;-23.31;78.74
69982;BME280;57319;56.274;43.980;2024-01-07T10:30:40;100088.22;;;-23.00;77.91
69982;BME280;57319;56.274;43.980;2024-01-07T10:33:07;100083.28;;;-23.28;77.46
69982;BME280;57319;56.274;43.980;2024-01-07T10:35:34;100095.53;;;-22.60;77.30
69982;BME280;57319;56.274;43.980;2024-01-07T10:38:01;100101.28;;;-22.40;76.65
69982;BME280;57319;56.274;43.980;2024-01-07T10:40:28;100107.13;;;-23.12;75.28
69982;BME280;57319;56.274;43.980;2024-01-07T10:42:58;100116.13;;;-23.77;76.80
69982;BME280;57319;56.274;43.980;2024-01-07T10:45:23;100108.59;;;-23.53;78.67
69982;BME280;57319;56.274;43.980;2024-01-07T10:47:51;100107.88;;;-24.11;77.97
69982;BME280;57319;56.274;43.980;2024-01-07T10:50:20;100115.69;;;-23.42;77.59
69982;BME280;57319;56.274;43.980;2024-01-07T10:52:50;100116.78;;;-23.52;78.72
69982;BME280;57319;56.274;43.980;2024-01-07T10:55:22;100117.31;;;-24.19;77.28
69982;BME280;57319;56.274;43.980;2024-01-07T10:57:48;100115.66;;;-24.13;79.47
69982;BME280;57319;56.274;43.980;2024-01-07T11:00:18;100119.19;;;-23.39;79.46
69982;BME280;57319;56.274;43.980;2024-01-07T11:03:09;100118.13;;;-23.54;78.23
69982;BME280;57319;56.274;43.980;2024-01-07T11:05:59;100115.19;;;-24.11;78.34
69982;BME280;57319;56.274;43.980;2024-01-07T11:08:36;100121.94;;;-23.56;80.20
69982;BME280;57319;56.274;43.980;2024-01-07T11:11:35;100128.81;;;-23.92;78.67
69982;BME280;57319;56.274;43.980;2024-01-07T11:14:02;100129.22;;;-23.11;79.58
69982;BME280;57319;56.274;43.980;2024-01-07T11:16:43;100131.78;;;-23.75;77.99
69982;BME280;57319;56.274;43.980;2024-01-07T11:19:13;100136.09;;;-23.80;78.59
69982;BME280;57319;56.274;43.980;2024-01-07T11:21:38;100136.88;;;-24.12;79.00
69982;BME280;57319;56.274;43.980;2024-01-07T11:24:04;100138.91;;;-24.15;80.11
69982;BME280;57319;56.274;43.980;2024-01-07T11:26:30;100141.66;;;-23.68;79.73
69982;BME280;57319;56.274;43.980;2024-01-07T11:28:57;100142.84;;;-23.26;79.90
69982;BME280;57319;56.274;43.980;2024-01-07T11:34:05;100145.97;;;-23.98;79.44
69982;BME280;57319;56.274;43.980;2024-01-07T11:36:37;100160.53;;;-23.47;80.10
69982;BME280;57319;56.274;43.980;2024-01-07T11:39:04;100167.72;;;-23.28;79.41
69982;BME280;57319;56.274;43.980;2024-01-07T11:41:35;100164.81;;;-23.05;79.03
69982;BME280;57319;56.274;43.980;2024-01-07T11:44:01;100174.09;;;-23.49;78.90
69982;BME280;57319;56.274;43.980;2024-01-07T11:46:29;100181.00;;;-23.65;78.40
69982;BME280;57319;56.274;43.980;2024-01-07T11:48:57;100186.47;;;-23.99;78.70
69982;BME280;57319;56.274;43.980;2024-01-07T11:51:29;100184.34;;;-24.34;80.10
69982;BME280;57319;56.274;43.980;2024-01-07T11:54:01;100191.84;;;-24.33;81.04
69982;BME280;57319;56.274;43.980;2024-01-07T11:56:28;100183.72;;;-24.07;80.35
69982;BME280;57319;56.274;43.980;2024-01-07T11:58:54;100202.13;;;-24.10;80.70
69982;BME280;57319;56.274;43.980;2024-01-07T12:01:21;100204.94;;;-23.42;80.85
69982;BME280;57319;56.274;43.980;2024-01-07T12:03:47;100196.88;;;-24.44;80.12
69982;BME280;57319;56.274;43.980;2024-01-07T12:06:13;100199.66;;;-24.22;81.53
69982;BME280;57319;56.274;43.980;2024-01-07T12:08:42;100204.78;;;-24.39;81.96
69982;BME280;57319;56.274;43.980;2024-01-07T12:11:13;100209.47;;;-23.97;81.52
69982;BME280;57319;56.274;43.980;2024-01-07T12:13:39;100208.16;;;-24.45;81.70
69982;BME280;57319;56.274;43.980;2024-01-07T12:16:06;100218.06;;;-24.56;81.74
69982;BME280;57319;56.274;43.980;2024-01-07T12:18:32;100215.63;;;-24.56;82.22
69982;BME280;57319;56.274;43.980;2024-01-07T12:20:59;100213.44;;;-24.29;81.73
69982;BME280;57319;56.274;43.980;2024-01-07T12:23:26;100217.81;;;-24.39;81.79
69982;BME280;57319;56.274;43.980;2024-01-07T12:25:52;100209.97;;;-24.49;82.11
69982;BME280;57319;56.274;43.980;2024-01-07T12:28:18;100201.44;;;-24.08;82.68
69982;BME280;57319;56.274;43.980;2024-01-07T12:30:44;100201.97;;;-23.98;81.42
69982;BME280;57319;56.274;43.980;2024-01-07T12:33:10;100203.31;;;-24.32;81.28
69982;BME280;57319;56.274;43.980;2024-01-07T12:35:35;100216.75;;;-23.97;81.79